• Join FlightAware (Why Join?)
  • Login
  • US Flag 
05:11AM EST


 

Airport Tracker/Info


-or-


 

Live Flight TrackerFlight Track Log ✈ SKW4632 ✈ 23-Aug-2013 ✈ KSLC - KMSO

Flight Track Log - Related Links

Times and Time Zones

All times are in EDT time to prevent confusion due to time zone crossing. See the SKW4632 flight status page for this flight to view local times or setup timezone preferences in your user account.

Time Position Orientation Groundspeed Altitude Reporting Facility
EDT Latitude Longitude Course Direction KTS MPH feet Rate Location/Type
01:22PM 40.7739 -111.9989 50° Northeast 196 226 5,000  Level Salt Lake Center
01:23PM 40.7653 -112.0869 263° West 255 293 7,900 2,100 Climbing Salt Lake Center
01:24PM 40.7956 -112.1208 320° Northwest 274 315 9,100 2,040 Climbing Salt Lake Center
01:24PM 40.8242 -112.1575 316° Northwest 279 321 10,000 1,920 Climbing Salt Lake Center
01:25PM 41.0272 -112.0895 37° Northeast  Level FlightAware Approximate
01:25PM 40.8600 -112.1806 334° Northwest 294 338 11,100  Level Salt Lake Center
01:25PM 40.8967 -112.1644 18° North 291 335 12,100 1,800 Climbing Salt Lake Center
01:26PM 41.1096 -111.9754 50° Northeast  Level FlightAware Approximate
01:26PM 40.9292 -112.1275 41° Northeast 300 345 13,000  Level Salt Lake Center
01:27PM 41.1922 -111.8456 50° Northeast  Level FlightAware Approximate
01:27PM 41.0047 -112.0806 25° Northeast 311 358 14,800  Level Salt Lake Center
01:28PM 41.0939 -112.1067 348° North 328 377 15,900 1,080 Climbing Salt Lake Center
01:29PM 41.1881 -112.1356 347° North 344 396 17,100 1,020 Climbing Salt Lake Center
01:30PM 41.2867 -112.1661 347° North 360 414 18,100 960 Climbing Salt Lake Center
01:31PM 41.3875 -112.1975 347° North 371 427 19,200 1,140 Climbing Salt Lake Center
01:32PM 41.5083 -112.2350 347° North 373 429 20,500 1,080 Climbing Salt Lake Center
01:33PM 41.6111 -112.2664 347° North 379 436 21,500 840 Climbing Salt Lake Center
01:34PM 41.7147 -112.2994 347° North 385 443 22,300 720 Climbing Salt Lake Center
01:35PM 41.8197 -112.3319 347° North 386 444 23,100 780 Climbing Salt Lake Center
01:36PM 41.9275 -112.3664 347° North 395 455 24,000 780 Climbing Salt Lake Center
01:37PM 42.0356 -112.4003 347° North 400 460 24,800 780 Climbing Salt Lake Center
01:38PM 42.1672 -112.4417 347° North 405 466 25,700 780 Climbing Salt Lake Center
01:39PM 42.2783 -112.4783 346° North 410 472 26,500 660 Climbing Salt Lake Center
01:40PM 42.3917 -112.5144 347° North 417 480 27,100 480 Climbing Salt Lake Center
01:41PM 42.5067 -112.5514 347° North 425 489 27,600 480 Climbing Salt Lake Center
01:42PM 42.6244 -112.5889 347° North 433 498 28,100 480 Climbing Salt Lake Center
01:43PM 42.7475 -112.6639 336° Northwest 439 505 28,600 480 Climbing Salt Lake Center
01:44PM 42.8728 -112.7375 337° Northwest 440 506 29,200 480 Climbing Salt Lake Center
01:45PM 42.9831 -112.8017 337° Northwest 446 513 29,700 360 Climbing Salt Lake Center
01:46PM 43.0919 -112.8644 337° Northwest 444 511 30,000 120 Climbing Salt Lake Center
01:47PM 43.2200 -112.9428 336° Northwest 450 518 30,000  Level Salt Lake Center
01:48PM 43.3331 -113.0106 336° Northwest 458 527 30,000  Level Salt Lake Center
01:49PM 43.4661 -113.0953 335° Northwest 467 537 30,000  Level Salt Lake Center
01:50PM 43.5819 -113.1667 336° Northwest 472 543 30,000  Level Salt Lake Center
01:51PM 43.7169 -113.2450 337° Northwest 471 542 30,000  Level Salt Lake Center
01:52PM 43.8325 -113.3153 336° Northwest 472 543 30,000  Level Salt Lake Center
01:54PM 43.9656 -113.3997 335° Northwest 471 542 30,000  Level Salt Lake Center
01:55PM 44.0792 -113.4778 334° Northwest 473 544 30,000  Level Salt Lake Center
01:56PM 44.2111 -113.5711 333° Northwest 474 545 30,000  Level Salt Lake Center
01:57PM 44.3228 -113.6578 331° Northwest 477 549 30,000  Level Salt Lake Center
01:58PM 44.4250 -113.7514 327° Northwest 466 536 30,000  Level Salt Lake Center
01:59PM 44.5592 -113.8283 338° Northwest 466 536 30,000  Level Salt Lake Center
02:00PM 44.6842 -113.8564 351° North 471 542 30,000  Level Salt Lake Center
02:01PM 44.8378 -113.8675 357° North 483 556 30,000  Level Salt Lake Center
02:02PM 44.9678 -113.8817 356° North 488 562 30,000  Level Salt Lake Center
02:03PM 45.1192 -113.8972 356° North 487 560 30,000  Level Salt Lake Center
02:04PM 45.2486 -113.9108 356° North 486 559 30,000  Level Salt Lake Center
02:05PM 45.4031 -113.9242 357° North 494 568 30,000  Level Salt Lake Center
02:06PM 45.5333 -113.9381 356° North 492 566 30,000  Level Salt Lake Center
02:07PM 45.6694 -113.9531 356° North 488 562 30,000 -600 Level Salt Lake Center
02:08PM 45.8036 -113.9653 356° North 486 559 28,900 -1,800 Descending Salt Lake Center
02:09PM 45.9342 -113.9783 356° North 476 548 26,400 -2,460 Descending Salt Lake Center
02:10PM 46.0594 -113.9919 356° North 461 531 23,900 -2,760 Descending Salt Lake Center
02:11PM 46.2006 -114.0078 356° North 426 490 20,800 -2,580 Descending Salt Lake Center
02:12PM 46.3189 -114.0208 356° North 409 471 18,600 -2,040 Descending Salt Lake Center
02:13PM 46.4244 -114.0314 356° North 380 437 16,700 -1,980 Descending Salt Lake Center
02:14PM 46.5247 -114.0675 346° North 348 400 14,600 -1,320 Descending Salt Lake Center
02:15PM 46.6069 -114.1361 330° Northwest 342 394 14,000 -600 Descending Salt Lake Center
02:16PM 46.6900 -114.2050 330° Northwest 321 369 13,400 -960 Descending Salt Lake Center
02:17PM 46.7625 -114.2697 329° Northwest 308 354 12,000 -1,140 Descending Salt Lake Center
02:18PM 46.8311 -114.3342 327° Northwest 296 341 11,100 -1,020 Descending Salt Lake Center
02:19PM 46.9011 -114.4039 326° Northwest 284 327 10,000 -540 Descending Salt Lake Center
02:20PM 46.9542 -114.4578 325° Northwest 236 272 10,000  Level Salt Lake Center
02:21PM 47.0139 -114.5144 327° Northwest 237 273 10,000  Level Salt Lake Center
02:22PM 47.0703 -114.5678 327° Northwest 240 276 10,000 -420 Level Salt Lake Center
02:23PM 47.1289 -114.5322 22° Northeast 251 289 9,200 -420 Descending Salt Lake Center
02:25PM 47.1272 -114.4492 92° East 216 249 9,200 -420 Level Salt Lake Center
02:26PM 47.0864 -114.3814 131° Southeast 222 255 8,400 -1,200 Descending Salt Lake Center
02:27PM 47.0469 -114.3156 131° Southeast 200 230 6,800 -1,260 Descending Salt Lake Center
02:28PM 47.0103 -114.2533 131° Southeast 200 230 5,900 -1,020 Descending Salt Lake Center
02:29PM 46.9742 -114.1928 131° Southeast 187 215 4,700 -960 Descending Salt Lake Center
02:30PM 46.9494 -114.1492 130° Southeast 146 168 4,000 -720 Descending Salt Lake Center
02:31PM 46.9239 -114.1050 130° Southeast 142 163 3,300 -720 Descending Salt Lake Center